sensor_id;sensor_type;location;lat;lon;timestamp;P1;durP1;ratioP1;P2;durP2;ratioP2
15002;SDS011;7597;53.590;10.020;2022-10-17T00:01:55;7.28;;;5.05;;
15002;SDS011;7597;53.590;10.020;2022-10-17T00:04:21;10.80;;;5.00;;
15002;SDS011;7597;53.590;10.020;2022-10-17T00:06:48;9.15;;;5.05;;
15002;SDS011;7597;53.590;10.020;2022-10-17T00:09:15;8.30;;;6.00;;
15002;SDS011;7597;53.590;10.020;2022-10-17T00:11:41;8.95;;;5.00;;
15002;SDS011;7597;53.590;10.020;2022-10-17T00:14:08;8.13;;;5.15;;
15002;SDS011;7597;53.590;10.020;2022-10-17T00:16:35;6.22;;;4.95;;
15002;SDS011;7597;53.590;10.020;2022-10-17T00:19:02;9.43;;;5.57;;
15002;SDS011;7597;53.590;10.020;2022-10-17T00:21:29;10.40;;;6.53;;
15002;SDS011;7597;53.590;10.020;2022-10-17T00:23:55;12.20;;;6.03;;
15002;SDS011;7597;53.590;10.020;2022-10-17T00:26:22;8.98;;;5.97;;
15002;SDS011;7597;53.590;10.020;2022-10-17T00:28:49;7.68;;;5.47;;
15002;SDS011;7597;53.590;10.020;2022-10-17T00:31:16;9.98;;;5.15;;
15002;SDS011;7597;53.590;10.020;2022-10-17T00:33:42;9.95;;;5.57;;
15002;SDS011;7597;53.590;10.020;2022-10-17T00:36:12;8.90;;;4.90;;
15002;SDS011;7597;53.590;10.020;2022-10-17T00:38:39;6.68;;;5.43;;
15002;SDS011;7597;53.590;10.020;2022-10-17T00:41:05;8.38;;;5.40;;
15002;SDS011;7597;53.590;10.020;2022-10-17T00:46:10;6.70;;;5.10;;
15002;SDS011;7597;53.590;10.020;2022-10-17T00:48:36;8.25;;;5.12;;
15002;SDS011;7597;53.590;10.020;2022-10-17T00:51:03;8.57;;;5.25;;
15002;SDS011;7597;53.590;10.020;2022-10-17T00:53:30;6.87;;;5.18;;
15002;SDS011;7597;53.590;10.020;2022-10-17T00:55:56;6.30;;;4.85;;
15002;SDS011;7597;53.590;10.020;2022-10-17T00:58:23;6.78;;;4.70;;
15002;SDS011;7597;53.590;10.020;2022-10-17T01:00:50;9.85;;;5.43;;
15002;SDS011;7597;53.590;10.020;2022-10-17T01:03:16;5.07;;;4.57;;
15002;SDS011;7597;53.590;10.020;2022-10-17T01:05:43;8.20;;;4.60;;
15002;SDS011;7597;53.590;10.020;2022-10-17T01:08:10;12.75;;;5.65;;
15002;SDS011;7597;53.590;10.020;2022-10-17T01:10:42;6.15;;;4.65;;
15002;SDS011;7597;53.590;10.020;2022-10-17T01:13:12;9.40;;;5.07;;
15002;SDS011;7597;53.590;10.020;2022-10-17T01:15:42;7.85;;;4.60;;
15002;SDS011;7597;53.590;10.020;2022-10-17T01:18:23;10.65;;;4.78;;
15002;SDS011;7597;53.590;10.020;2022-10-17T01:23:58;7.50;;;4.70;;
15002;SDS011;7597;53.590;10.020;2022-10-17T01:26:40;10.05;;;4.65;;
15002;SDS011;7597;53.590;10.020;2022-10-17T01:32:11;8.18;;;5.00;;
15002;SDS011;7597;53.590;10.020;2022-10-17T01:34:46;6.07;;;4.55;;
15002;SDS011;7597;53.590;10.020;2022-10-17T01:37:18;6.37;;;4.53;;
15002;SDS011;7597;53.590;10.020;2022-10-17T01:40:06;7.07;;;4.80;;
15002;SDS011;7597;53.590;10.020;2022-10-17T01:42:39;8.15;;;4.78;;
15002;SDS011;7597;53.590;10.020;2022-10-17T01:45:12;10.15;;;4.50;;
15002;SDS011;7597;53.590;10.020;2022-10-17T01:47:38;7.28;;;4.85;;
15002;SDS011;7597;53.590;10.020;2022-10-17T01:50:06;8.05;;;4.47;;
15002;SDS011;7597;53.590;10.020;2022-10-17T01:52:47;7.40;;;4.22;;
15002;SDS011;7597;53.590;10.020;2022-10-17T01:55:15;7.03;;;4.50;;
15002;SDS011;7597;53.590;10.020;2022-10-17T01:57:41;6.05;;;4.20;;
15002;SDS011;7597;53.590;10.020;2022-10-17T02:00:09;7.45;;;5.10;;
15002;SDS011;7597;53.590;10.020;2022-10-17T02:02:35;6.32;;;4.28;;
15002;SDS011;7597;53.590;10.020;2022-10-17T02:05:02;9.32;;;4.50;;
15002;SDS011;7597;53.590;10.020;2022-10-17T02:07:28;6.87;;;4.32;;
15002;SDS011;7597;53.590;10.020;2022-10-17T02:09:55;9.15;;;4.50;;
15002;SDS011;7597;53.590;10.020;2022-10-17T02:12:26;10.35;;;4.25;;
15002;SDS011;7597;53.590;10.020;2022-10-17T02:15:08;7.25;;;4.18;;
15002;SDS011;7597;53.590;10.020;2022-10-17T02:17:56;5.75;;;3.97;;
15002;SDS011;7597;53.590;10.020;2022-10-17T02:20:24;9.45;;;3.78;;
15002;SDS011;7597;53.590;10.020;2022-10-17T02:22:55;6.78;;;3.87;;
15002;SDS011;7597;53.590;10.020;2022-10-17T02:27:54;6.20;;;3.92;;
15002;SDS011;7597;53.590;10.020;2022-10-17T02:30:33;4.25;;;3.37;;
15002;SDS011;7597;53.590;10.020;2022-10-17T02:33:12;5.80;;;3.87;;
15002;SDS011;7597;53.590;10.020;2022-10-17T02:35:39;6.60;;;3.40;;
15002;SDS011;7597;53.590;10.020;2022-10-17T02:38:05;8.48;;;3.83;;
15002;SDS011;7597;53.590;10.020;2022-10-17T02:40:31;5.85;;;3.83;;
15002;SDS011;7597;53.590;10.020;2022-10-17T02:42:58;6.60;;;3.72;;
15002;SDS011;7597;53.590;10.020;2022-10-17T02:45:24;9.43;;;4.25;;
15002;SDS011;7597;53.590;10.020;2022-10-17T02:47:58;5.25;;;3.70;;
15002;SDS011;7597;53.590;10.020;2022-10-17T02:50:32;7.03;;;3.70;;
15002;SDS011;7597;53.590;10.020;2022-10-17T02:52:57;6.18;;;3.60;;
15002;SDS011;7597;53.590;10.020;2022-10-17T02:55:24;7.30;;;3.40;;
15002;SDS011;7597;53.590;10.020;2022-10-17T02:57:51;4.00;;;3.60;;
15002;SDS011;7597;53.590;10.020;2022-10-17T03:00:17;7.35;;;3.65;;
15002;SDS011;7597;53.590;10.020;2022-10-17T03:02:45;4.37;;;3.60;;
15002;SDS011;7597;53.590;10.020;2022-10-17T03:05:11;4.43;;;3.40;;
15002;SDS011;7597;53.590;10.020;2022-10-17T03:07:37;6.60;;;3.85;;
15002;SDS011;7597;53.590;10.020;2022-10-17T03:10:04;4.57;;;3.62;;
15002;SDS011;7597;53.590;10.020;2022-10-17T03:12:31;5.45;;;3.62;;
15002;SDS011;7597;53.590;10.020;2022-10-17T03:14:58;4.40;;;3.50;;
15002;SDS011;7597;53.590;10.020;2022-10-17T03:17:24;4.75;;;3.60;;
15002;SDS011;7597;53.590;10.020;2022-10-17T03:19:51;3.92;;;3.53;;
15002;SDS011;7597;53.590;10.020;2022-10-17T03:22:17;3.97;;;3.58;;
15002;SDS011;7597;53.590;10.020;2022-10-17T03:24:44;4.87;;;4.20;;
15002;SDS011;7597;53.590;10.020;2022-10-17T03:27:11;5.45;;;3.80;;
15002;SDS011;7597;53.590;10.020;2022-10-17T03:29:37;4.12;;;3.45;;
15002;SDS011;7597;53.590;10.020;2022-10-17T03:32:04;5.37;;;3.60;;
15002;SDS011;7597;53.590;10.020;2022-10-17T03:34:31;4.50;;;3.47;;
15002;SDS011;7597;53.590;10.020;2022-10-17T03:36:57;5.53;;;3.35;;
15002;SDS011;7597;53.590;10.020;2022-10-17T03:39:24;5.97;;;3.58;;
15002;SDS011;7597;53.590;10.020;2022-10-17T03:41:51;4.22;;;3.42;;
15002;SDS011;7597;53.590;10.020;2022-10-17T03:44:17;3.75;;;3.22;;
15002;SDS011;7597;53.590;10.020;2022-10-17T03:46:44;6.03;;;3.92;;
15002;SDS011;7597;53.590;10.020;2022-10-17T03:49:11;3.90;;;3.50;;
15002;SDS011;7597;53.590;10.020;2022-10-17T03:51:37;3.90;;;3.47;;
15002;SDS011;7597;53.590;10.020;2022-10-17T03:54:04;5.72;;;4.32;;
15002;SDS011;7597;53.590;10.020;2022-10-17T03:56:31;5.60;;;3.67;;
15002;SDS011;7597;53.590;10.020;2022-10-17T03:58:57;5.60;;;3.60;;
15002;SDS011;7597;53.590;10.020;2022-10-17T04:01:24;4.32;;;3.87;;
15002;SDS011;7597;53.590;10.020;2022-10-17T04:03:51;8.10;;;3.95;;
15002;SDS011;7597;53.590;10.020;2022-10-17T04:06:18;6.20;;;4.00;;
15002;SDS011;7597;53.590;10.020;2022-10-17T04:08:44;5.90;;;3.53;;
15002;SDS011;7597;53.590;10.020;2022-10-17T04:11:13;3.90;;;3.60;;
15002;SDS011;7597;53.590;10.020;2022-10-17T04:13:38;4.50;;;3.20;;
15002;SDS011;7597;53.590;10.020;2022-10-17T04:16:06;4.03;;;3.53;;
15002;SDS011;7597;53.590;10.020;2022-10-17T04:18:32;6.85;;;3.83;;
15002;SDS011;7597;53.590;10.020;2022-10-17T04:21:01;3.78;;;3.40;;
15002;SDS011;7597;53.590;10.020;2022-10-17T04:23:27;3.97;;;3.55;;
15002;SDS011;7597;53.590;10.020;2022-10-17T04:25:55;3.58;;;3.22;;
15002;SDS011;7597;53.590;10.020;2022-10-17T04:28:22;3.40;;;3.10;;
15002;SDS011;7597;53.590;10.020;2022-10-17T04:30:56;3.35;;;3.05;;
15002;SDS011;7597;53.590;10.020;2022-10-17T04:33:23;5.22;;;3.40;;
15002;SDS011;7597;53.590;10.020;2022-10-17T04:35:55;8.30;;;3.42;;
15002;SDS011;7597;53.590;10.020;2022-10-17T04:38:22;4.07;;;3.55;;
15002;SDS011;7597;53.590;10.020;2022-10-17T04:40:49;5.20;;;3.55;;
15002;SDS011;7597;53.590;10.020;2022-10-17T04:43:15;3.50;;;3.20;;
15002;SDS011;7597;53.590;10.020;2022-10-17T04:45:42;5.37;;;3.42;;
15002;SDS011;7597;53.590;10.020;2022-10-17T04:48:09;6.03;;;3.45;;
15002;SDS011;7597;53.590;10.020;2022-10-17T04:50:36;7.03;;;3.45;;
15002;SDS011;7597;53.590;10.020;2022-10-17T04:53:03;5.00;;;3.75;;
15002;SDS011;7597;53.590;10.020;2022-10-17T04:55:29;5.50;;;3.37;;
15002;SDS011;7597;53.590;10.020;2022-10-17T04:57:56;7.53;;;3.95;;
15002;SDS011;7597;53.590;10.020;2022-10-17T05:00:23;6.78;;;3.90;;
15002;SDS011;7597;53.590;10.020;2022-10-17T05:02:49;4.43;;;3.50;;
15002;SDS011;7597;53.590;10.020;2022-10-17T05:05:16;4.62;;;3.65;;
15002;SDS011;7597;53.590;10.020;2022-10-17T05:07:43;5.15;;;4.07;;
15002;SDS011;7597;53.590;10.020;2022-10-17T05:10:09;4.22;;;3.83;;
15002;SDS011;7597;53.590;10.020;2022-10-17T05:12:36;4.62;;;3.65;;
15002;SDS011;7597;53.590;10.020;2022-10-17T05:15:03;4.07;;;3.67;;
15002;SDS011;7597;53.590;10.020;2022-10-17T05:17:30;3.78;;;3.45;;
15002;SDS011;7597;53.590;10.020;2022-10-17T05:19:56;4.75;;;4.28;;
15002;SDS011;7597;53.590;10.020;2022-10-17T05:22:23;4.87;;;4.15;;
15002;SDS011;7597;53.590;10.020;2022-10-17T05:24:50;4.35;;;3.95;;
15002;SDS011;7597;53.590;10.020;2022-10-17T05:27:16;5.15;;;3.92;;
15002;SDS011;7597;53.590;10.020;2022-10-17T05:29:43;4.40;;;4.00;;
15002;SDS011;7597;53.590;10.020;2022-10-17T05:32:10;4.68;;;4.28;;
15002;SDS011;7597;53.590;10.020;2022-10-17T05:34:36;6.43;;;4.93;;
15002;SDS011;7597;53.590;10.020;2022-10-17T05:37:03;6.87;;;4.43;;
15002;SDS011;7597;53.590;10.020;2022-10-17T05:39:30;5.95;;;4.45;;
15002;SDS011;7597;53.590;10.020;2022-10-17T05:41:56;7.62;;;4.30;;
15002;SDS011;7597;53.590;10.020;2022-10-17T05:44:23;4.50;;;4.10;;
15002;SDS011;7597;53.590;10.020;2022-10-17T05:46:51;6.20;;;4.50;;
15002;SDS011;7597;53.590;10.020;2022-10-17T05:49:17;5.82;;;4.78;;
15002;SDS011;7597;53.590;10.020;2022-10-17T05:51:44;5.65;;;4.25;;
15002;SDS011;7597;53.590;10.020;2022-10-17T05:54:11;5.32;;;4.85;;
15002;SDS011;7597;53.590;10.020;2022-10-17T05:56:37;4.80;;;4.30;;
15002;SDS011;7597;53.590;10.020;2022-10-17T05:59:04;5.85;;;4.22;;
15002;SDS011;7597;53.590;10.020;2022-10-17T06:01:30;5.37;;;4.28;;
15002;SDS011;7597;53.590;10.020;2022-10-17T06:03:57;7.65;;;4.30;;
15002;SDS011;7597;53.590;10.020;2022-10-17T06:06:24;4.80;;;4.32;;
15002;SDS011;7597;53.590;10.020;2022-10-17T06:08:50;5.72;;;4.20;;
15002;SDS011;7597;53.590;10.020;2022-10-17T06:11:18;5.57;;;4.20;;
15002;SDS011;7597;53.590;10.020;2022-10-17T06:13:44;4.60;;;4.20;;
15002;SDS011;7597;53.590;10.020;2022-10-17T06:16:11;4.75;;;4.12;;
15002;SDS011;7597;53.590;10.020;2022-10-17T06:18:38;4.53;;;4.12;;
15002;SDS011;7597;53.590;10.020;2022-10-17T06:21:07;6.22;;;4.30;;
15002;SDS011;7597;53.590;10.020;2022-10-17T06:23:34;5.28;;;4.00;;
15002;SDS011;7597;53.590;10.020;2022-10-17T06:26:01;3.97;;;3.47;;
15002;SDS011;7597;53.590;10.020;2022-10-17T06:28:28;5.22;;;3.47;;
15002;SDS011;7597;53.590;10.020;2022-10-17T06:30:54;5.03;;;3.22;;
15002;SDS011;7597;53.590;10.020;2022-10-17T06:33:21;3.95;;;3.20;;
15002;SDS011;7597;53.590;10.020;2022-10-17T06:35:50;5.12;;;3.33;;
15002;SDS011;7597;53.590;10.020;2022-10-17T06:38:19;5.55;;;3.40;;
15002;SDS011;7597;53.590;10.020;2022-10-17T06:40:45;6.22;;;3.30;;
15002;SDS011;7597;53.590;10.020;2022-10-17T06:43:12;5.37;;;3.28;;
15002;SDS011;7597;53.590;10.020;2022-10-17T06:45:39;4.53;;;3.40;;
15002;SDS011;7597;53.590;10.020;2022-10-17T06:48:06;4.55;;;2.70;;
15002;SDS011;7597;53.590;10.020;2022-10-17T06:50:33;5.57;;;3.45;;
15002;SDS011;7597;53.590;10.020;2022-10-17T06:52:59;5.43;;;3.15;;
15002;SDS011;7597;53.590;10.020;2022-10-17T06:55:26;5.45;;;3.20;;
15002;SDS011;7597;53.590;10.020;2022-10-17T06:57:54;3.60;;;3.15;;
15002;SDS011;7597;53.590;10.020;2022-10-17T07:00:21;4.93;;;3.05;;
15002;SDS011;7597;53.590;10.020;2022-10-17T07:02:48;3.80;;;2.75;;
15002;SDS011;7597;53.590;10.020;2022-10-17T07:05:18;3.85;;;2.72;;
15002;SDS011;7597;53.590;10.020;2022-10-17T07:07:45;4.53;;;2.80;;
15002;SDS011;7597;53.590;10.020;2022-10-17T07:10:11;4.53;;;3.25;;
15002;SDS011;7597;53.590;10.020;2022-10-17T07:12:38;3.03;;;2.78;;
15002;SDS011;7597;53.590;10.020;2022-10-17T07:15:05;3.60;;;2.95;;
15002;SDS011;7597;53.590;10.020;2022-10-17T07:17:32;5.37;;;2.95;;
15002;SDS011;7597;53.590;10.020;2022-10-17T07:19:59;4.10;;;2.50;;
15002;SDS011;7597;53.590;10.020;2022-10-17T07:22:35;5.82;;;3.00;;
15002;SDS011;7597;53.590;10.020;2022-10-17T07:25:15;4.37;;;3.10;;
15002;SDS011;7597;53.590;10.020;2022-10-17T07:27:47;3.65;;;2.90;;
15002;SDS011;7597;53.590;10.020;2022-10-17T07:30:17;3.47;;;2.90;;
15002;SDS011;7597;53.590;10.020;2022-10-17T07:32:48;3.37;;;3.08;;
15002;SDS011;7597;53.590;10.020;2022-10-17T07:35:15;4.90;;;3.15;;
15002;SDS011;7597;53.590;10.020;2022-10-17T07:37:43;4.43;;;3.17;;
15002;SDS011;7597;53.590;10.020;2022-10-17T07:40:10;3.62;;;3.00;;
15002;SDS011;7597;53.590;10.020;2022-10-17T07:42:37;4.75;;;2.90;;
15002;SDS011;7597;53.590;10.020;2022-10-17T07:45:04;3.62;;;2.67;;
15002;SDS011;7597;53.590;10.020;2022-10-17T07:47:31;2.92;;;2.60;;
15002;SDS011;7597;53.590;10.020;2022-10-17T07:49:58;4.60;;;3.22;;
15002;SDS011;7597;53.590;10.020;2022-10-17T07:52:25;4.45;;;3.00;;
15002;SDS011;7597;53.590;10.020;2022-10-17T07:54:52;4.18;;;2.90;;
15002;SDS011;7597;53.590;10.020;2022-10-17T07:57:19;6.60;;;3.40;;
15002;SDS011;7597;53.590;10.020;2022-10-17T07:59:45;3.78;;;3.15;;
15002;SDS011;7597;53.590;10.020;2022-10-17T08:02:17;3.40;;;3.08;;
15002;SDS011;7597;53.590;10.020;2022-10-17T08:04:48;12.63;;;10.05;;
15002;SDS011;7597;53.590;10.020;2022-10-17T08:07:14;4.57;;;3.00;;
15002;SDS011;7597;53.590;10.020;2022-10-17T08:09:50;3.92;;;3.08;;
15002;SDS011;7597;53.590;10.020;2022-10-17T08:12:16;5.03;;;2.97;;
15002;SDS011;7597;53.590;10.020;2022-10-17T08:14:44;6.62;;;2.80;;
15002;SDS011;7597;53.590;10.020;2022-10-17T08:17:11;2.87;;;2.67;;
15002;SDS011;7597;53.590;10.020;2022-10-17T08:19:38;16.98;;;13.35;;
15002;SDS011;7597;53.590;10.020;2022-10-17T08:22:05;4.95;;;2.97;;
15002;SDS011;7597;53.590;10.020;2022-10-17T08:24:31;3.37;;;3.05;;
15002;SDS011;7597;53.590;10.020;2022-10-17T08:26:58;4.25;;;3.05;;
15002;SDS011;7597;53.590;10.020;2022-10-17T08:29:25;6.03;;;3.05;;
15002;SDS011;7597;53.590;10.020;2022-10-17T08:31:52;6.10;;;3.00;;
15002;SDS011;7597;53.590;10.020;2022-10-17T08:34:18;9.85;;;7.50;;
15002;SDS011;7597;53.590;10.020;2022-10-17T08:36:46;7.07;;;4.72;;
15002;SDS011;7597;53.590;10.020;2022-10-17T08:39:12;4.95;;;3.12;;
15002;SDS011;7597;53.590;10.020;2022-10-17T08:41:43;7.50;;;4.15;;
15002;SDS011;7597;53.590;10.020;2022-10-17T08:47:10;3.92;;;3.20;;
15002;SDS011;7597;53.590;10.020;2022-10-17T08:49:40;3.75;;;3.10;;
15002;SDS011;7597;53.590;10.020;2022-10-17T08:52:09;6.37;;;3.62;;
15002;SDS011;7597;53.590;10.020;2022-10-17T08:54:38;3.90;;;3.05;;
15002;SDS011;7597;53.590;10.020;2022-10-17T08:57:02;4.95;;;3.40;;
15002;SDS011;7597;53.590;10.020;2022-10-17T08:59:29;5.05;;;3.28;;
15002;SDS011;7597;53.590;10.020;2022-10-17T09:02:00;5.50;;;3.50;;
15002;SDS011;7597;53.590;10.020;2022-10-17T09:04:33;9.07;;;3.30;;
15002;SDS011;7597;53.590;10.020;2022-10-17T09:07:13;5.82;;;3.08;;
15002;SDS011;7597;53.590;10.020;2022-10-17T09:10:02;4.28;;;2.95;;
15002;SDS011;7597;53.590;10.020;2022-10-17T09:12:30;8.07;;;3.10;;
15002;SDS011;7597;53.590;10.020;2022-10-17T09:15:12;4.75;;;2.50;;
15002;SDS011;7597;53.590;10.020;2022-10-17T09:17:42;5.47;;;2.75;;
15002;SDS011;7597;53.590;10.020;2022-10-17T09:20:20;4.53;;;3.40;;
15002;SDS011;7597;53.590;10.020;2022-10-17T09:22:55;6.07;;;3.37;;
15002;SDS011;7597;53.590;10.020;2022-10-17T09:25:23;7.05;;;3.10;;
15002;SDS011;7597;53.590;10.020;2022-10-17T09:27:51;3.45;;;3.08;;
15002;SDS011;7597;53.590;10.020;2022-10-17T09:30:35;5.57;;;3.20;;
15002;SDS011;7597;53.590;10.020;2022-10-17T09:33:16;7.45;;;3.78;;
15002;SDS011;7597;53.590;10.020;2022-10-17T09:35:43;5.55;;;3.25;;
15002;SDS011;7597;53.590;10.020;2022-10-17T09:38:14;3.60;;;3.30;;
15002;SDS011;7597;53.590;10.020;2022-10-17T09:40:40;3.70;;;2.78;;
15002;SDS011;7597;53.590;10.020;2022-10-17T09:43:07;4.10;;;3.15;;
15002;SDS011;7597;53.590;10.020;2022-10-17T09:45:35;4.93;;;3.50;;
15002;SDS011;7597;53.590;10.020;2022-10-17T09:48:07;3.72;;;3.17;;
15002;SDS011;7597;53.590;10.020;2022-10-17T09:50:33;4.87;;;3.20;;
15002;SDS011;7597;53.590;10.020;2022-10-17T09:53:00;5.07;;;3.10;;
15002;SDS011;7597;53.590;10.020;2022-10-17T09:55:32;5.70;;;3.15;;
15002;SDS011;7597;53.590;10.020;2022-10-17T09:57:57;6.22;;;3.42;;
15002;SDS011;7597;53.590;10.020;2022-10-17T10:00:26;5.20;;;3.28;;
15002;SDS011;7597;53.590;10.020;2022-10-17T10:03:06;3.70;;;3.20;;
15002;SDS011;7597;53.590;10.020;2022-10-17T10:05:38;3.30;;;2.95;;
15002;SDS011;7597;53.590;10.020;2022-10-17T10:08:10;5.30;;;3.25;;
15002;SDS011;7597;53.590;10.020;2022-10-17T10:10:31;4.03;;;2.90;;
15002;SDS011;7597;53.590;10.020;2022-10-17T10:13:02;5.78;;;3.45;;
15002;SDS011;7597;53.590;10.020;2022-10-17T10:15:33;4.68;;;3.40;;
15002;SDS011;7597;53.590;10.020;2022-10-17T10:17:58;6.60;;;4.20;;
15002;SDS011;7597;53.590;10.020;2022-10-17T10:20:28;5.30;;;3.22;;
15002;SDS011;7597;53.590;10.020;2022-10-17T10:23:06;6.75;;;3.60;;
15002;SDS011;7597;53.590;10.020;2022-10-17T10:25:47;5.22;;;3.37;;
15002;SDS011;7597;53.590;10.020;2022-10-17T10:28:13;6.62;;;3.70;;
15002;SDS011;7597;53.590;10.020;2022-10-17T10:30:39;8.65;;;3.92;;
15002;SDS011;7597;53.590;10.020;2022-10-17T10:33:09;6.45;;;3.37;;
15002;SDS011;7597;53.590;10.020;2022-10-17T10:35:33;6.57;;;3.62;;
15002;SDS011;7597;53.590;10.020;2022-10-17T10:38:01;7.68;;;3.80;;
15002;SDS011;7597;53.590;10.020;2022-10-17T10:40:29;4.00;;;3.37;;
15002;SDS011;7597;53.590;10.020;2022-10-17T10:42:55;4.22;;;3.10;;
15002;SDS011;7597;53.590;10.020;2022-10-17T10:45:22;5.78;;;3.85;;
15002;SDS011;7597;53.590;10.020;2022-10-17T10:47:53;7.65;;;3.90;;
15002;SDS011;7597;53.590;10.020;2022-10-17T10:50:24;8.32;;;3.67;;
15002;SDS011;7597;53.590;10.020;2022-10-17T10:52:56;6.50;;;3.67;;
15002;SDS011;7597;53.590;10.020;2022-10-17T10:55:28;6.72;;;4.00;;
15002;SDS011;7597;53.590;10.020;2022-10-17T10:57:54;7.60;;;4.10;;
15002;SDS011;7597;53.590;10.020;2022-10-17T11:00:21;6.75;;;3.62;;
15002;SDS011;7597;53.590;10.020;2022-10-17T11:02:53;8.27;;;4.30;;
15002;SDS011;7597;53.590;10.020;2022-10-17T11:05:21;9.57;;;4.50;;
15002;SDS011;7597;53.590;10.020;2022-10-17T11:07:51;8.95;;;4.22;;
15002;SDS011;7597;53.590;10.020;2022-10-17T11:10:34;7.85;;;4.37;;
15002;SDS011;7597;53.590;10.020;2022-10-17T11:13:23;7.50;;;4.47;;
15002;SDS011;7597;53.590;10.020;2022-10-17T11:18:47;9.38;;;4.50;;
15002;SDS011;7597;53.590;10.020;2022-10-17T11:21:19;6.70;;;4.20;;
15002;SDS011;7597;53.590;10.020;2022-10-17T11:24:00;6.10;;;4.30;;
15002;SDS011;7597;53.590;10.020;2022-10-17T11:26:27;7.65;;;4.35;;
15002;SDS011;7597;53.590;10.020;2022-10-17T11:28:53;6.45;;;4.00;;
15002;SDS011;7597;53.590;10.020;2022-10-17T11:31:20;7.07;;;4.05;;
15002;SDS011;7597;53.590;10.020;2022-10-17T11:33:48;6.80;;;3.90;;
15002;SDS011;7597;53.590;10.020;2022-10-17T11:36:14;4.82;;;4.00;;
15002;SDS011;7597;53.590;10.020;2022-10-17T11:38:44;6.20;;;3.95;;
15002;SDS011;7597;53.590;10.020;2022-10-17T11:41:13;6.40;;;3.75;;
15002;SDS011;7597;53.590;10.020;2022-10-17T11:43:49;9.20;;;4.60;;
15002;SDS011;7597;53.590;10.020;2022-10-17T11:46:19;7.65;;;4.15;;
15002;SDS011;7597;53.590;10.020;2022-10-17T11:48:53;9.48;;;3.90;;
15002;SDS011;7597;53.590;10.020;2022-10-17T11:51:29;6.07;;;4.03;;
15002;SDS011;7597;53.590;10.020;2022-10-17T11:53:56;9.35;;;4.43;;
15002;SDS011;7597;53.590;10.020;2022-10-17T11:56:28;5.47;;;3.95;;
15002;SDS011;7597;53.590;10.020;2022-10-17T11:59:28;7.70;;;3.72;;
15002;SDS011;7597;53.590;10.020;2022-10-17T12:01:53;5.47;;;3.45;;
15002;SDS011;7597;53.590;10.020;2022-10-17T12:04:24;6.40;;;4.25;;
15002;SDS011;7597;53.590;10.020;2022-10-17T12:07:09;6.30;;;4.05;;
15002;SDS011;7597;53.590;10.020;2022-10-17T12:09:43;11.90;;;6.40;;
15002;SDS011;7597;53.590;10.020;2022-10-17T12:12:22;9.43;;;5.78;;
15002;SDS011;7597;53.590;10.020;2022-10-17T12:14:45;8.10;;;6.12;;
15002;SDS011;7597;53.590;10.020;2022-10-17T12:22:36;9.50;;;7.40;;
15002;SDS011;7597;53.590;10.020;2022-10-17T12:25:03;11.93;;;7.82;;
15002;SDS011;7597;53.590;10.020;2022-10-17T12:27:35;11.25;;;7.95;;
15002;SDS011;7597;53.590;10.020;2022-10-17T12:30:01;9.05;;;7.47;;
15002;SDS011;7597;53.590;10.020;2022-10-17T12:32:27;11.23;;;7.80;;
15002;SDS011;7597;53.590;10.020;2022-10-17T12:34:54;10.32;;;7.87;;
15002;SDS011;7597;53.590;10.020;2022-10-17T12:42:53;14.38;;;10.25;;
15002;SDS011;7597;53.590;10.020;2022-10-17T12:47:58;10.68;;;8.40;;
15002;SDS011;7597;53.590;10.020;2022-10-17T12:53:12;9.18;;;7.85;;
15002;SDS011;7597;53.590;10.020;2022-10-17T12:55:39;11.80;;;7.78;;
15002;SDS011;7597;53.590;10.020;2022-10-17T12:58:10;9.57;;;8.32;;
15002;SDS011;7597;53.590;10.020;2022-10-17T13:00:43;9.68;;;7.93;;
15002;SDS011;7597;53.590;10.020;2022-10-17T13:03:14;11.43;;;8.48;;
15002;SDS011;7597;53.590;10.020;2022-10-17T13:05:44;12.10;;;7.50;;
15002;SDS011;7597;53.590;10.020;2022-10-17T13:08:14;9.60;;;7.82;;
15002;SDS011;7597;53.590;10.020;2022-10-17T13:10:39;9.68;;;7.78;;
15002;SDS011;7597;53.590;10.020;2022-10-17T13:15:49;11.18;;;7.97;;
15002;SDS011;7597;53.590;10.020;2022-10-17T13:18:18;12.20;;;8.30;;
15002;SDS011;7597;53.590;10.020;2022-10-17T13:20:53;11.18;;;9.23;;
15002;SDS011;7597;53.590;10.020;2022-10-17T13:23:21;12.85;;;9.27;;
15002;SDS011;7597;53.590;10.020;2022-10-17T13:25:40;12.27;;;8.60;;
15002;SDS011;7597;53.590;10.020;2022-10-17T13:28:10;12.15;;;9.43;;
15002;SDS011;7597;53.590;10.020;2022-10-17T13:30:35;12.70;;;9.88;;
15002;SDS011;7597;53.590;10.020;2022-10-17T13:33:01;11.80;;;9.95;;
15002;SDS011;7597;53.590;10.020;2022-10-17T13:35:31;13.52;;;9.80;;
15002;SDS011;7597;53.590;10.020;2022-10-17T13:37:58;14.80;;;10.45;;
15002;SDS011;7597;53.590;10.020;2022-10-17T13:40:25;13.05;;;10.40;;
15002;SDS011;7597;53.590;10.020;2022-10-17T13:42:52;11.77;;;10.35;;
15002;SDS011;7597;53.590;10.020;2022-10-17T13:45:19;13.38;;;10.57;;
15002;SDS011;7597;53.590;10.020;2022-10-17T13:47:48;12.50;;;10.80;;
15002;SDS011;7597;53.590;10.020;2022-10-17T15:16:25;23.27;;;19.08;;
15002;SDS011;7597;53.590;10.020;2022-10-17T15:18:52;20.25;;;16.00;;
15002;SDS011;7597;53.590;10.020;2022-10-17T15:21:20;21.25;;;16.35;;
15002;SDS011;7597;53.590;10.020;2022-10-17T15:23:45;19.27;;;16.08;;
15002;SDS011;7597;53.590;10.020;2022-10-17T15:26:14;23.48;;;16.77;;
15002;SDS011;7597;53.590;10.020;2022-10-17T15:28:39;18.67;;;16.42;;
15002;SDS011;7597;53.590;10.020;2022-10-17T15:31:10;21.27;;;17.55;;
15002;SDS011;7597;53.590;10.020;2022-10-17T15:33:41;26.15;;;18.52;;
15002;SDS011;7597;53.590;10.020;2022-10-17T15:38:58;23.10;;;17.75;;
15002;SDS011;7597;53.590;10.020;2022-10-17T15:41:25;22.23;;;18.27;;
15002;SDS011;7597;53.590;10.020;2022-10-17T15:43:51;21.45;;;17.45;;
15002;SDS011;7597;53.590;10.020;2022-10-17T15:46:18;19.83;;;17.08;;
15002;SDS011;7597;53.590;10.020;2022-10-17T15:48:45;22.15;;;18.08;;
15002;SDS011;7597;53.590;10.020;2022-10-17T15:51:12;21.60;;;17.27;;
15002;SDS011;7597;53.590;10.020;2022-10-17T15:53:39;22.37;;;18.17;;
15002;SDS011;7597;53.590;10.020;2022-10-17T15:56:06;21.35;;;17.95;;
15002;SDS011;7597;53.590;10.020;2022-10-17T15:58:35;22.62;;;17.52;;
15002;SDS011;7597;53.590;10.020;2022-10-17T16:01:01;18.58;;;15.85;;
15002;SDS011;7597;53.590;10.020;2022-10-17T16:03:28;22.02;;;17.33;;
15002;SDS011;7597;53.590;10.020;2022-10-17T16:05:55;18.73;;;15.90;;
15002;SDS011;7597;53.590;10.020;2022-10-17T16:08:21;23.27;;;16.48;;
15002;SDS011;7597;53.590;10.020;2022-10-17T16:10:49;19.75;;;15.77;;
15002;SDS011;7597;53.590;10.020;2022-10-17T16:13:17;18.52;;;16.50;;
15002;SDS011;7597;53.590;10.020;2022-10-17T16:15:43;18.55;;;15.63;;
15002;SDS011;7597;53.590;10.020;2022-10-17T16:18:11;19.52;;;16.27;;
15002;SDS011;7597;53.590;10.020;2022-10-17T16:20:38;19.02;;;15.90;;
15002;SDS011;7597;53.590;10.020;2022-10-17T16:23:06;20.08;;;16.98;;
15002;SDS011;7597;53.590;10.020;2022-10-17T16:25:32;22.75;;;16.92;;
15002;SDS011;7597;53.590;10.020;2022-10-17T16:27:59;22.33;;;16.73;;
15002;SDS011;7597;53.590;10.020;2022-10-17T16:30:26;24.00;;;17.87;;
15002;SDS011;7597;53.590;10.020;2022-10-17T16:32:53;21.45;;;17.45;;
15002;SDS011;7597;53.590;10.020;2022-10-17T16:35:20;24.70;;;18.45;;
15002;SDS011;7597;53.590;10.020;2022-10-17T16:37:46;22.00;;;18.92;;
15002;SDS011;7597;53.590;10.020;2022-10-17T16:40:13;24.67;;;19.20;;
15002;SDS011;7597;53.590;10.020;2022-10-17T16:42:39;25.17;;;19.40;;
15002;SDS011;7597;53.590;10.020;2022-10-17T16:45:06;26.02;;;19.27;;
15002;SDS011;7597;53.590;10.020;2022-10-17T16:47:33;25.55;;;20.25;;
15002;SDS011;7597;53.590;10.020;2022-10-17T16:50:00;25.70;;;19.87;;
15002;SDS011;7597;53.590;10.020;2022-10-17T16:52:27;22.75;;;19.60;;
15002;SDS011;7597;53.590;10.020;2022-10-17T16:54:54;25.37;;;19.87;;
15002;SDS011;7597;53.590;10.020;2022-10-17T16:57:21;24.95;;;20.20;;